sensor_id;sensor_type;location;lat;lon;timestamp;pressure;altitude;pressure_sealevel;temperature;humidity
42603;BME280;28233;55.748;48.752;2024-02-28T00:00:18;101068.47;;;-8.21;56.43
42603;BME280;28233;55.748;48.752;2024-02-28T00:02:21;101065.13;;;-8.23;56.62
42603;BME280;28233;55.748;48.752;2024-02-28T00:04:24;101072.31;;;-8.24;56.89
42603;BME280;28233;55.748;48.752;2024-02-28T00:06:27;101059.97;;;-8.25;56.37
42603;BME280;28233;55.748;48.752;2024-02-28T00:08:30;101061.63;;;-8.24;56.24
42603;BME280;28233;55.748;48.752;2024-02-28T00:10:32;101061.63;;;-8.24;57.00
42603;BME280;28233;55.748;48.752;2024-02-28T00:12:35;101064.63;;;-8.27;57.32
42603;BME280;28233;55.748;48.752;2024-02-28T00:14:38;101068.59;;;-8.31;57.57
42603;BME280;28233;55.748;48.752;2024-02-28T00:16:42;101064.28;;;-8.32;56.35
42603;BME280;28233;55.748;48.752;2024-02-28T00:18:45;101067.59;;;-8.30;56.20
42603;BME280;28233;55.748;48.752;2024-02-28T00:20:49;101058.56;;;-8.37;56.57
42603;BME280;28233;55.748;48.752;2024-02-28T00:22:52;101076.94;;;-8.34;56.62
42603;BME280;28233;55.748;48.752;2024-02-28T00:24:54;101081.25;;;-8.33;56.37
42603;BME280;28233;55.748;48.752;2024-02-28T00:26:57;101086.91;;;-8.36;56.86
42603;BME280;28233;55.748;48.752;2024-02-28T00:29:00;101078.91;;;-8.36;56.28
42603;BME280;28233;55.748;48.752;2024-02-28T00:31:03;101079.25;;;-8.39;56.63
42603;BME280;28233;55.748;48.752;2024-02-28T00:33:06;101076.91;;;-8.42;56.46
42603;BME280;28233;55.748;48.752;2024-02-28T00:35:09;101081.41;;;-8.43;56.29
42603;BME280;28233;55.748;48.752;2024-02-28T00:37:11;101082.25;;;-8.42;56.72
42603;BME280;28233;55.748;48.752;2024-02-28T00:39:14;101079.75;;;-8.44;56.61
42603;BME280;28233;55.748;48.752;2024-02-28T00:41:17;101085.91;;;-8.43;57.07
42603;BME280;28233;55.748;48.752;2024-02-28T00:43:20;101088.72;;;-8.45;55.96
42603;BME280;28233;55.748;48.752;2024-02-28T00:45:23;101079.91;;;-8.45;56.56
42603;BME280;28233;55.748;48.752;2024-02-28T00:47:26;101085.38;;;-8.47;57.27
42603;BME280;28233;55.748;48.752;2024-02-28T00:49:28;101077.72;;;-8.50;56.65
42603;BME280;28233;55.748;48.752;2024-02-28T00:51:31;101087.38;;;-8.49;56.77
42603;BME280;28233;55.748;48.752;2024-02-28T00:53:35;101087.38;;;-8.49;57.24
42603;BME280;28233;55.748;48.752;2024-02-28T00:55:37;101086.41;;;-8.48;56.58
42603;BME280;28233;55.748;48.752;2024-02-28T00:57:40;101091.03;;;-8.50;57.18
42603;BME280;28233;55.748;48.752;2024-02-28T00:59:43;101087.03;;;-8.54;57.02
42603;BME280;28233;55.748;48.752;2024-02-28T01:01:48;101084.53;;;-8.56;56.04
42603;BME280;28233;55.748;48.752;2024-02-28T01:03:51;101086.19;;;-8.55;56.69
42603;BME280;28233;55.748;48.752;2024-02-28T01:05:54;101085.69;;;-8.58;55.83
42603;BME280;28233;55.748;48.752;2024-02-28T01:07:56;101091.03;;;-8.58;57.20
42603;BME280;28233;55.748;48.752;2024-02-28T01:09:59;101084.47;;;-8.64;57.31
42603;BME280;28233;55.748;48.752;2024-02-28T01:12:03;101088.81;;;-8.63;57.24
42603;BME280;28233;55.748;48.752;2024-02-28T01:14:05;101087.28;;;-8.65;57.15
42603;BME280;28233;55.748;48.752;2024-02-28T01:16:08;101084.31;;;-8.62;56.29
42603;BME280;28233;55.748;48.752;2024-02-28T01:18:11;101091.50;;;-8.63;56.56
42603;BME280;28233;55.748;48.752;2024-02-28T01:20:14;101090.63;;;-8.63;56.62
42603;BME280;28233;55.748;48.752;2024-02-28T01:22:17;101098.81;;;-8.65;56.52
42603;BME280;28233;55.748;48.752;2024-02-28T01:24:20;101090.97;;;-8.66;56.59
42603;BME280;28233;55.748;48.752;2024-02-28T01:26:23;101087.59;;;-8.68;56.83
42603;BME280;28233;55.748;48.752;2024-02-28T01:28:26;101095.78;;;-8.70;56.50
42603;BME280;28233;55.748;48.752;2024-02-28T01:30:28;101093.25;;;-8.72;56.17
42603;BME280;28233;55.748;48.752;2024-02-28T01:32:31;101081.09;;;-8.74;56.83
42603;BME280;28233;55.748;48.752;2024-02-28T01:34:34;101081.09;;;-8.74;56.15
42603;BME280;28233;55.748;48.752;2024-02-28T01:36:37;101078.72;;;-8.77;56.49
42603;BME280;28233;55.748;48.752;2024-02-28T01:38:40;101082.72;;;-8.81;56.85
42603;BME280;28233;55.748;48.752;2024-02-28T01:40:46;101084.69;;;-8.83;57.05
42603;BME280;28233;55.748;48.752;2024-02-28T01:42:49;101079.84;;;-8.88;56.89
42603;BME280;28233;55.748;48.752;2024-02-28T01:44:54;101079.00;;;-8.88;57.24
42603;BME280;28233;55.748;48.752;2024-02-28T01:46:57;101086.59;;;-8.94;57.81
42603;BME280;28233;55.748;48.752;2024-02-28T01:49:01;101082.59;;;-8.98;57.92
42603;BME280;28233;55.748;48.752;2024-02-28T01:51:04;101085.41;;;-8.99;57.56
42603;BME280;28233;55.748;48.752;2024-02-28T01:53:09;101088.06;;;-8.99;57.28
42603;BME280;28233;55.748;48.752;2024-02-28T01:55:14;101082.25;;;-9.03;57.70
42603;BME280;28233;55.748;48.752;2024-02-28T01:57:16;101082.91;;;-9.01;57.59
42603;BME280;28233;55.748;48.752;2024-02-28T01:59:19;101085.56;;;-9.01;57.29
42603;BME280;28233;55.748;48.752;2024-02-28T02:01:26;101077.56;;;-9.01;57.87
42603;BME280;28233;55.748;48.752;2024-02-28T02:03:28;101084.59;;;-9.00;57.38
42603;BME280;28233;55.748;48.752;2024-02-28T02:05:31;101079.94;;;-8.98;56.92
42603;BME280;28233;55.748;48.752;2024-02-28T02:07:35;101073.94;;;-9.00;56.61
42603;BME280;28233;55.748;48.752;2024-02-28T02:09:38;101081.78;;;-8.98;57.49
42603;BME280;28233;55.748;48.752;2024-02-28T02:11:41;101073.09;;;-9.00;57.10
42603;BME280;28233;55.748;48.752;2024-02-28T02:13:51;101080.22;;;-9.01;57.48
42603;BME280;28233;55.748;48.752;2024-02-28T02:15:54;101090.75;;;-8.99;57.04
42603;BME280;28233;55.748;48.752;2024-02-28T02:17:58;101084.72;;;-9.01;57.50
42603;BME280;28233;55.748;48.752;2024-02-28T02:20:01;101085.56;;;-9.01;57.45
42603;BME280;28233;55.748;48.752;2024-02-28T02:22:08;101078.56;;;-9.02;57.59
42603;BME280;28233;55.748;48.752;2024-02-28T02:24:11;101087.56;;;-9.03;57.92
42603;BME280;28233;55.748;48.752;2024-02-28T02:26:14;101089.91;;;-9.00;58.08
42603;BME280;28233;55.748;48.752;2024-02-28T02:28:17;101087.41;;;-9.01;57.93
42603;BME280;28233;55.748;48.752;2024-02-28T02:30:19;101090.22;;;-9.03;58.07
42603;BME280;28233;55.748;48.752;2024-02-28T02:32:22;101093.56;;;-9.01;57.34
42603;BME280;28233;55.748;48.752;2024-02-28T02:34:25;101092.56;;;-9.00;57.09
42603;BME280;28233;55.748;48.752;2024-02-28T02:36:28;101089.91;;;-9.00;56.78
42603;BME280;28233;55.748;48.752;2024-02-28T02:38:31;101082.91;;;-9.01;57.05
42603;BME280;28233;55.748;48.752;2024-02-28T02:40:34;101089.22;;;-9.02;57.90
42603;BME280;28233;55.748;48.752;2024-02-28T02:42:36;101092.91;;;-9.03;57.52
42603;BME280;28233;55.748;48.752;2024-02-28T02:44:39;101092.03;;;-9.03;57.26
42603;BME280;28233;55.748;48.752;2024-02-28T02:46:42;101077.88;;;-9.04;57.55
42603;BME280;28233;55.748;48.752;2024-02-28T02:48:45;101080.34;;;-9.10;57.30
42603;BME280;28233;55.748;48.752;2024-02-28T02:50:47;101080.56;;;-9.04;57.39
42603;BME280;28233;55.748;48.752;2024-02-28T02:52:50;101083.22;;;-9.04;57.55
42603;BME280;28233;55.748;48.752;2024-02-28T02:54:53;101077.56;;;-9.01;57.10
42603;BME280;28233;55.748;48.752;2024-02-28T02:56:56;101077.44;;;-8.99;57.09
42603;BME280;28233;55.748;48.752;2024-02-28T02:58:59;101078.78;;;-8.95;56.86
42603;BME280;28233;55.748;48.752;2024-02-28T03:01:01;101081.81;;;-8.90;56.29
42603;BME280;28233;55.748;48.752;2024-02-28T03:03:04;101082.03;;;-8.83;56.83
42603;BME280;28233;55.748;48.752;2024-02-28T03:05:08;101084.22;;;-8.79;57.23
42603;BME280;28233;55.748;48.752;2024-02-28T03:07:11;101087.94;;;-8.72;55.75
42603;BME280;28233;55.748;48.752;2024-02-28T03:09:14;101080.91;;;-8.73;56.50
42603;BME280;28233;55.748;48.752;2024-02-28T03:11:17;101076.94;;;-8.68;56.79
42603;BME280;28233;55.748;48.752;2024-02-28T03:13:20;101088.44;;;-8.68;57.28
42603;BME280;28233;55.748;48.752;2024-02-28T03:15:23;101076.81;;;-8.67;56.49
42603;BME280;28233;55.748;48.752;2024-02-28T03:17:26;101089.94;;;-8.65;56.32
42603;BME280;28233;55.748;48.752;2024-02-28T03:19:28;101091.09;;;-8.68;56.88
42603;BME280;28233;55.748;48.752;2024-02-28T03:21:31;101092.09;;;-8.69;56.79
42603;BME280;28233;55.748;48.752;2024-02-28T03:23:34;101095.94;;;-8.72;57.20
42603;BME280;28233;55.748;48.752;2024-02-28T03:25:38;101090.91;;;-8.75;56.83
42603;BME280;28233;55.748;48.752;2024-02-28T03:27:41;101095.38;;;-8.75;56.54
42603;BME280;28233;55.748;48.752;2024-02-28T03:29:44;101097.22;;;-8.76;56.92
42603;BME280;28233;55.748;48.752;2024-02-28T03:31:47;101099.06;;;-8.76;56.74
42603;BME280;28233;55.748;48.752;2024-02-28T03:33:49;101100.03;;;-8.77;56.06
42603;BME280;28233;55.748;48.752;2024-02-28T03:35:53;101109.03;;;-8.78;56.62
42603;BME280;28233;55.748;48.752;2024-02-28T03:37:56;101095.84;;;-8.80;56.77
42603;BME280;28233;55.748;48.752;2024-02-28T03:39:58;101100.34;;;-8.80;56.95
42603;BME280;28233;55.748;48.752;2024-02-28T03:42:01;101102.19;;;-8.81;57.34
42603;BME280;28233;55.748;48.752;2024-02-28T03:44:05;101106.50;;;-8.80;56.69
42603;BME280;28233;55.748;48.752;2024-02-28T03:46:08;101080.88;;;-8.81;55.98
42603;BME280;28233;55.748;48.752;2024-02-28T03:48:11;101090.44;;;-8.70;55.77
42603;BME280;28233;55.748;48.752;2024-02-28T03:50:14;101093.63;;;-8.66;55.81
42603;BME280;28233;55.748;48.752;2024-02-28T03:52:17;101086.66;;;-8.59;55.57
42603;BME280;28233;55.748;48.752;2024-02-28T03:54:20;101103.34;;;-8.57;55.44
42603;BME280;28233;55.748;48.752;2024-02-28T03:56:23;101084.53;;;-8.56;55.52
42603;BME280;28233;55.748;48.752;2024-02-28T03:58:31;101096.72;;;-8.53;56.39
42603;BME280;28233;55.748;48.752;2024-02-28T04:00:34;101101.72;;;-8.50;56.32
42603;BME280;28233;55.748;48.752;2024-02-28T04:02:38;101098.91;;;-8.48;56.39
42603;BME280;28233;55.748;48.752;2024-02-28T04:04:40;101104.72;;;-8.45;56.73
42603;BME280;28233;55.748;48.752;2024-02-28T04:06:43;101105.25;;;-8.41;55.96
42603;BME280;28233;55.748;48.752;2024-02-28T04:08:46;101108.75;;;-8.41;55.99
42603;BME280;28233;55.748;48.752;2024-02-28T04:10:49;101103.06;;;-8.38;55.76
42603;BME280;28233;55.748;48.752;2024-02-28T04:12:53;101102.78;;;-8.35;55.89
42603;BME280;28233;55.748;48.752;2024-02-28T04:14:56;101117.59;;;-8.32;55.95
42603;BME280;28233;55.748;48.752;2024-02-28T04:16:59;101107.78;;;-8.32;55.32
42603;BME280;28233;55.748;48.752;2024-02-28T04:19:01;101107.97;;;-8.25;54.91
42603;BME280;28233;55.748;48.752;2024-02-28T04:21:04;101112.84;;;-8.20;54.57
42603;BME280;28233;55.748;48.752;2024-02-28T04:23:07;101105.47;;;-8.18;54.76
42603;BME280;28233;55.748;48.752;2024-02-28T04:25:10;101109.69;;;-8.16;54.19
42603;BME280;28233;55.748;48.752;2024-02-28T04:27:13;101114.53;;;-8.11;55.03
42603;BME280;28233;55.748;48.752;2024-02-28T04:29:16;101096.50;;;-8.09;55.45
42603;BME280;28233;55.748;48.752;2024-02-28T04:31:18;101105.53;;;-8.10;55.60
42603;BME280;28233;55.748;48.752;2024-02-28T04:33:21;101106.41;;;-8.01;54.57
42603;BME280;28233;55.748;48.752;2024-02-28T04:35:25;101116.09;;;-7.92;54.64
42603;BME280;28233;55.748;48.752;2024-02-28T04:37:28;101111.13;;;-7.87;53.93
42603;BME280;28233;55.748;48.752;2024-02-28T04:39:30;101112.28;;;-7.81;54.52
42603;BME280;28233;55.748;48.752;2024-02-28T04:41:33;101106.63;;;-7.78;54.02
42603;BME280;28233;55.748;48.752;2024-02-28T04:43:36;101097.28;;;-7.74;53.60
42603;BME280;28233;55.748;48.752;2024-02-28T04:45:39;101103.97;;;-7.70;54.09
42603;BME280;28233;55.748;48.752;2024-02-28T04:47:42;101105.34;;;-7.66;54.30
42603;BME280;28233;55.748;48.752;2024-02-28T04:49:46;101114.66;;;-7.62;53.98
42603;BME280;28233;55.748;48.752;2024-02-28T04:51:49;101100.19;;;-7.59;54.33
42603;BME280;28233;55.748;48.752;2024-02-28T04:53:52;101101.84;;;-7.58;54.50
42603;BME280;28233;55.748;48.752;2024-02-28T04:55:54;101099.84;;;-7.56;54.29
42603;BME280;28233;55.748;48.752;2024-02-28T04:57:57;101112.50;;;-7.50;53.75
42603;BME280;28233;55.748;48.752;2024-02-28T05:00:00;101108.84;;;-7.49;53.45
42603;BME280;28233;55.748;48.752;2024-02-28T05:02:05;101095.16;;;-7.46;54.13
42603;BME280;28233;55.748;48.752;2024-02-28T05:04:08;101100.84;;;-7.41;53.21
42603;BME280;28233;55.748;48.752;2024-02-28T05:06:11;101092.84;;;-7.33;52.98
42603;BME280;28233;55.748;48.752;2024-02-28T05:08:14;101090.53;;;-7.28;53.81
42603;BME280;28233;55.748;48.752;2024-02-28T05:10:16;101090.53;;;-7.28;53.35
42603;BME280;28233;55.748;48.752;2024-02-28T05:12:20;101081.34;;;-7.17;53.33
42603;BME280;28233;55.748;48.752;2024-02-28T05:14:22;101094.22;;;-7.12;52.45
42603;BME280;28233;55.748;48.752;2024-02-28T05:16:25;101091.34;;;-7.11;52.12
42603;BME280;28233;55.748;48.752;2024-02-28T05:18:28;101091.19;;;-7.09;51.92
42603;BME280;28233;55.748;48.752;2024-02-28T05:20:31;101092.84;;;-7.08;51.97
42603;BME280;28233;55.748;48.752;2024-02-28T05:22:34;101087.19;;;-7.05;51.88
42603;BME280;28233;55.748;48.752;2024-02-28T05:24:37;101084.16;;;-7.02;51.91
42603;BME280;28233;55.748;48.752;2024-02-28T05:26:39;101093.34;;;-6.96;51.94
42603;BME280;28233;55.748;48.752;2024-02-28T05:28:42;101095.34;;;-6.90;51.91
42603;BME280;28233;55.748;48.752;2024-02-28T05:30:45;101098.34;;;-6.85;51.90
42603;BME280;28233;55.748;48.752;2024-02-28T05:32:52;101099.34;;;-6.78;52.04
42603;BME280;28233;55.748;48.752;2024-02-28T05:34:55;101104.69;;;-6.70;51.16
42603;BME280;28233;55.748;48.752;2024-02-28T05:36:57;101097.47;;;-6.61;51.41
42603;BME280;28233;55.748;48.752;2024-02-28T05:39:02;101090.94;;;-6.59;52.62
42603;BME280;28233;55.748;48.752;2024-02-28T05:41:08;101092.41;;;-6.48;50.84
42603;BME280;28233;55.748;48.752;2024-02-28T05:43:11;101100.59;;;-6.41;50.58
42603;BME280;28233;55.748;48.752;2024-02-28T05:45:15;101094.72;;;-6.36;50.28
42603;BME280;28233;55.748;48.752;2024-02-28T05:47:18;101093.69;;;-6.27;50.47
42603;BME280;28233;55.748;48.752;2024-02-28T05:49:25;101088.16;;;-6.26;50.29
42603;BME280;28233;55.748;48.752;2024-02-28T05:51:28;101088.50;;;-6.21;50.39
42603;BME280;28233;55.748;48.752;2024-02-28T05:53:31;101088.16;;;-6.18;50.21
42603;BME280;28233;55.748;48.752;2024-02-28T05:55:40;101092.25;;;-6.07;50.27
42603;BME280;28233;55.748;48.752;2024-02-28T05:57:43;101088.44;;;-6.04;50.08
42603;BME280;28233;55.748;48.752;2024-02-28T05:59:46;101088.38;;;-5.96;50.17
42603;BME280;28233;55.748;48.752;2024-02-28T06:01:49;101088.47;;;-5.89;50.14
42603;BME280;28233;55.748;48.752;2024-02-28T06:03:51;101096.00;;;-5.85;50.31
42603;BME280;28233;55.748;48.752;2024-02-28T06:05:55;101087.44;;;-5.80;50.81
42603;BME280;28233;55.748;48.752;2024-02-28T06:08:00;101091.22;;;-5.75;50.86
42603;BME280;28233;55.748;48.752;2024-02-28T06:10:03;101084.53;;;-5.70;49.89
42603;BME280;28233;55.748;48.752;2024-02-28T06:12:06;101079.09;;;-5.62;49.39
42603;BME280;28233;55.748;48.752;2024-02-28T06:14:09;101091.72;;;-5.48;49.42
42603;BME280;28233;55.748;48.752;2024-02-28T06:16:15;101097.16;;;-5.33;49.33
42603;BME280;28233;55.748;48.752;2024-02-28T06:18:18;101102.44;;;-5.25;48.49
42603;BME280;28233;55.748;48.752;2024-02-28T06:20:21;101076.81;;;-5.19;47.83
42603;BME280;28233;55.748;48.752;2024-02-28T06:22:24;101074.13;;;-5.19;47.74
42603;BME280;28233;55.748;48.752;2024-02-28T06:24:26;101079.34;;;-5.03;48.46
42603;BME280;28233;55.748;48.752;2024-02-28T06:26:29;101087.66;;;-4.98;47.74
42603;BME280;28233;55.748;48.752;2024-02-28T06:28:33;101089.81;;;-4.93;48.43
42603;BME280;28233;55.748;48.752;2024-02-28T06:30:36;101085.56;;;-4.88;49.10
42603;BME280;28233;55.748;48.752;2024-02-28T06:32:39;101086.31;;;-4.79;48.61
42603;BME280;28233;55.748;48.752;2024-02-28T06:34:42;101079.59;;;-4.75;48.97
42603;BME280;28233;55.748;48.752;2024-02-28T06:36:44;101075.22;;;-4.76;48.39
42603;BME280;28233;55.748;48.752;2024-02-28T06:38:47;101075.81;;;-4.65;47.90
42603;BME280;28233;55.748;48.752;2024-02-28T06:40:50;101075.44;;;-4.62;48.35
42603;BME280;28233;55.748;48.752;2024-02-28T06:42:53;101069.41;;;-4.64;47.63
42603;BME280;28233;55.748;48.752;2024-02-28T06:44:56;101076.53;;;-4.57;47.85
42603;BME280;28233;55.748;48.752;2024-02-28T06:46:58;101078.66;;;-4.52;48.28
42603;BME280;28233;55.748;48.752;2024-02-28T06:49:01;101076.06;;;-4.46;48.04
42603;BME280;28233;55.748;48.752;2024-02-28T06:51:04;101068.78;;;-4.37;48.31
42603;BME280;28233;55.748;48.752;2024-02-28T06:53:07;101074.25;;;-4.30;47.23
42603;BME280;28233;55.748;48.752;2024-02-28T06:55:10;101073.31;;;-4.22;47.48
42603;BME280;28233;55.748;48.752;2024-02-28T06:57:13;101067.09;;;-4.23;47.73
42603;BME280;28233;55.748;48.752;2024-02-28T06:59:16;101069.03;;;-4.17;46.56
42603;BME280;28233;55.748;48.752;2024-02-28T07:01:19;101073.00;;;-4.13;47.43
42603;BME280;28233;55.748;48.752;2024-02-28T07:03:21;101070.16;;;-4.11;45.68
42603;BME280;28233;55.748;48.752;2024-02-28T07:05:24;101076.78;;;-4.07;46.04
42603;BME280;28233;55.748;48.752;2024-02-28T07:07:27;101068.00;;;-4.01;46.41
42603;BME280;28233;55.748;48.752;2024-02-28T07:09:31;101072.63;;;-3.95;45.20
42603;BME280;28233;55.748;48.752;2024-02-28T07:11:35;101054.84;;;-3.96;45.72
42603;BME280;28233;55.748;48.752;2024-02-28T07:13:38;101064.63;;;-3.88;46.28
42603;BME280;28233;55.748;48.752;2024-02-28T07:15:41;101066.13;;;-3.86;47.27
42603;BME280;28233;55.748;48.752;2024-02-28T07:17:44;101069.06;;;-3.80;46.99
42603;BME280;28233;55.748;48.752;2024-02-28T07:19:47;101072.00;;;-3.75;46.69
42603;BME280;28233;55.748;48.752;2024-02-28T07:21:50;101065.44;;;-3.73;47.14
42603;BME280;28233;55.748;48.752;2024-02-28T07:23:52;101069.41;;;-3.69;46.37
42603;BME280;28233;55.748;48.752;2024-02-28T07:25:56;101063.47;;;-3.64;47.10
42603;BME280;28233;55.748;48.752;2024-02-28T07:28:07;101067.41;;;-3.60;46.74
42603;BME280;28233;55.748;48.752;2024-02-28T07:30:10;101058.75;;;-3.62;46.55
42603;BME280;28233;55.748;48.752;2024-02-28T07:32:12;101067.13;;;-3.50;46.16
42603;BME280;28233;55.748;48.752;2024-02-28T07:34:15;101068.59;;;-3.48;46.80
42603;BME280;28233;55.748;48.752;2024-02-28T07:36:19;101071.13;;;-3.40;46.49
42603;BME280;28233;55.748;48.752;2024-02-28T07:38:22;101067.22;;;-3.37;46.39
42603;BME280;28233;55.748;48.752;2024-02-28T07:40:30;101072.03;;;-3.32;46.16
42603;BME280;28233;55.748;48.752;2024-02-28T07:42:33;101059.50;;;-3.25;46.29
42603;BME280;28233;55.748;48.752;2024-02-28T07:44:36;101063.84;;;-3.24;45.43
42603;BME280;28233;55.748;48.752;2024-02-28T07:46:41;101064.69;;;-3.24;45.26
42603;BME280;28233;55.748;48.752;2024-02-28T07:48:44;101065.31;;;-3.22;45.11
42603;BME280;28233;55.748;48.752;2024-02-28T07:50:46;101066.16;;;-3.21;44.39
42603;BME280;28233;55.748;48.752;2024-02-28T07:52:50;101060.19;;;-3.16;44.55
42603;BME280;28233;55.748;48.752;2024-02-28T07:54:52;101052.38;;;-3.11;43.73
42603;BME280;28233;55.748;48.752;2024-02-28T07:56:56;101048.47;;;-3.09;42.39
42603;BME280;28233;55.748;48.752;2024-02-28T07:58:58;101047.06;;;-3.05;44.27
42603;BME280;28233;55.748;48.752;2024-02-28T08:01:01;101035.84;;;-3.08;42.76
42603;BME280;28233;55.748;48.752;2024-02-28T08:03:04;101053.94;;;-2.95;43.67
42603;BME280;28233;55.748;48.752;2024-02-28T08:05:07;101049.84;;;-2.91;43.29
42603;BME280;28233;55.748;48.752;2024-02-28T08:07:10;101044.72;;;-2.86;43.70
42603;BME280;28233;55.748;48.752;2024-02-28T08:09:13;101052.56;;;-2.85;42.48
42603;BME280;28233;55.748;48.752;2024-02-28T08:11:18;101048.47;;;-2.81;42.54
42603;BME280;28233;55.748;48.752;2024-02-28T08:13:21;101044.78;;;-2.73;43.17
42603;BME280;28233;55.748;48.752;2024-02-28T08:15:24;101046.69;;;-2.67;43.59
42603;BME280;28233;55.748;48.752;2024-02-28T08:17:27;101043.88;;;-2.59;44.57
42603;BME280;28233;55.748;48.752;2024-02-28T08:19:30;101037.28;;;-2.49;44.23
42603;BME280;28233;55.748;48.752;2024-02-28T08:21:33;101042.31;;;-2.40;44.45
42603;BME280;28233;55.748;48.752;2024-02-28T08:23:36;101041.13;;;-2.30;43.73
42603;BME280;28233;55.748;48.752;2024-02-28T08:25:39;101025.84;;;-2.23;43.21
42603;BME280;28233;55.748;48.752;2024-02-28T08:27:41;101034.31;;;-2.20;43.89
42603;BME280;28233;55.748;48.752;2024-02-28T08:29:44;101025.47;;;-2.14;42.86
42603;BME280;28233;55.748;48.752;2024-02-28T08:31:48;101030.03;;;-2.07;43.08
42603;BME280;28233;55.748;48.752;2024-02-28T08:33:51;101021.16;;;-2.01;42.43
42603;BME280;28233;55.748;48.752;2024-02-28T08:35:55;101022.59;;;-1.99;42.96
42603;BME280;28233;55.748;48.752;2024-02-28T08:37:57;101017.84;;;-1.97;42.99
42603;BME280;28233;55.748;48.752;2024-02-28T08:40:00;101022.00;;;-1.94;43.10
42603;BME280;28233;55.748;48.752;2024-02-28T08:42:04;101011.63;;;-1.91;43.54
42603;BME280;28233;55.748;48.752;2024-02-28T08:44:07;101015.59;;;-1.80;43.52
42603;BME280;28233;55.748;48.752;2024-02-28T08:46:14;101006.91;;;-1.75;42.73
42603;BME280;28233;55.748;48.752;2024-02-28T08:48:18;101007.13;;;-1.70;41.22
42603;BME280;28233;55.748;48.752;2024-02-28T08:50:21;100999.66;;;-1.75;39.55
42603;BME280;28233;55.748;48.752;2024-02-28T08:52:24;101012.72;;;-1.65;41.14
42603;BME280;28233;55.748;48.752;2024-02-28T08:54:27;101012.72;;;-1.65;40.24
42603;BME280;28233;55.748;48.752;2024-02-28T08:56:29;101013.16;;;-1.61;39.79
42603;BME280;28233;55.748;48.752;2024-02-28T08:58:32;101006.34;;;-1.57;40.59
42603;BME280;28233;55.748;48.752;2024-02-28T09:00:35;100999.09;;;-1.50;40.88
42603;BME280;28233;55.748;48.752;2024-02-28T09:02:38;101001.16;;;-1.45;39.76
42603;BME280;28233;55.748;48.752;2024-02-28T09:04:41;101000.94;;;-1.44;39.23
42603;BME280;28233;55.748;48.752;2024-02-28T09:06:44;101001.78;;;-1.37;39.44
42603;BME280;28233;55.748;48.752;2024-02-28T09:08:47;100982.06;;;-1.37;37.80
42603;BME280;28233;55.748;48.752;2024-02-28T09:10:49;100982.50;;;-1.40;37.97
42603;BME280;28233;55.748;48.752;2024-02-28T09:12:52;100964.44;;;-1.53;36.60
42603;BME280;28233;55.748;48.752;2024-02-28T09:14:55;100989.97;;;-1.42;37.79
42603;BME280;28233;55.748;48.752;2024-02-28T09:17:00;100975.84;;;-1.51;36.71
42603;BME280;28233;55.748;48.752;2024-02-28T09:19:06;100981.44;;;-1.46;38.02
42603;BME280;28233;55.748;48.752;2024-02-28T09:21:08;100980.19;;;-1.37;38.26
42603;BME280;28233;55.748;48.752;2024-02-28T09:23:28;100977.50;;;-1.30;37.29
42603;BME280;28233;55.748;48.752;2024-02-28T09:25:31;100975.25;;;-1.26;37.82
42603;BME280;28233;55.748;48.752;2024-02-28T09:27:36;100981.22;;;-1.18;38.39
42603;BME280;28233;55.748;48.752;2024-02-28T09:29:39;100980.41;;;-1.12;38.50
42603;BME280;28233;55.748;48.752;2024-02-28T09:31:41;100981.84;;;-1.09;39.64
42603;BME280;28233;55.748;48.752;2024-02-28T09:33:44;100980.84;;;-1.15;37.96
42603;BME280;28233;55.748;48.752;2024-02-28T09:35:49;100975.84;;;-1.18;37.93
42603;BME280;28233;55.748;48.752;2024-02-28T09:37:51;100977.09;;;-1.20;37.40
42603;BME280;28233;55.748;48.752;2024-02-28T09:39:54;100968.81;;;-1.19;38.04
42603;BME280;28233;55.748;48.752;2024-02-28T09:41:57;100974.19;;;-1.19;38.17
42603;BME280;28233;55.748;48.752;2024-02-28T09:44:02;100961.75;;;-1.20;38.01
42603;BME280;28233;55.748;48.752;2024-02-28T09:46:05;100962.34;;;-1.18;38.18
42603;BME280;28233;55.748;48.752;2024-02-28T09:48:10;100971.50;;;-1.19;38.12
42603;BME280;28233;55.748;48.752;2024-02-28T09:50:15;100969.84;;;-1.20;38.11
42603;BME280;28233;55.748;48.752;2024-02-28T09:52:20;100965.06;;;-1.11;38.34
42603;BME280;28233;55.748;48.752;2024-02-28T09:54:23;100956.34;;;-1.13;38.03
42603;BME280;28233;55.748;48.752;2024-02-28T09:56:26;100959.25;;;-1.08;37.83
42603;BME280;28233;55.748;48.752;2024-02-28T09:58:30;100953.63;;;-1.00;38.66
42603;BME280;28233;55.748;48.752;2024-02-28T10:00:33;100952.38;;;-0.97;37.76
42603;BME280;28233;55.748;48.752;2024-02-28T10:02:39;100946.16;;;-0.91;38.08
42603;BME280;28233;55.748;48.752;2024-02-28T10:04:43;100955.28;;;-0.92;38.00
42603;BME280;28233;55.748;48.752;2024-02-28T10:06:46;100944.72;;;-0.94;38.17
42603;BME280;28233;55.748;48.752;2024-02-28T10:08:52;100945.31;;;-0.92;37.55
42603;BME280;28233;55.748;48.752;2024-02-28T10:10:55;100946.16;;;-0.91;37.16
42603;BME280;28233;55.748;48.752;2024-02-28T10:13:00;100943.44;;;-0.84;38.23
42603;BME280;28233;55.748;48.752;2024-02-28T10:15:03;100945.09;;;-0.83;37.78
42603;BME280;28233;55.748;48.752;2024-02-28T10:17:06;100938.03;;;-0.84;37.36
42603;BME280;28233;55.748;48.752;2024-02-28T10:19:10;100936.16;;;-0.77;37.47
42603;BME280;28233;55.748;48.752;2024-02-28T10:21:13;100939.25;;;-0.74;37.16
42603;BME280;28233;55.748;48.752;2024-02-28T10:23:20;100934.66;;;-0.67;37.47
42603;BME280;28233;55.748;48.752;2024-02-28T10:25:23;100928.19;;;-0.59;38.06
42603;BME280;28233;55.748;48.752;2024-02-28T10:27:26;100931.72;;;-0.52;37.26
42603;BME280;28233;55.748;48.752;2024-02-28T10:29:29;100926.09;;;-0.57;37.80
42603;BME280;28233;55.748;48.752;2024-02-28T10:31:35;100933.56;;;-0.52;38.24
42603;BME280;28233;55.748;48.752;2024-02-28T10:33:38;100936.25;;;-0.52;38.36
42603;BME280;28233;55.748;48.752;2024-02-28T10:35:44;100928.16;;;-0.52;38.49